Accueil
METAR-TAF:

METAR-TAF

Aéroports :

Salt Point, Louisiane, États-Unis

latitude: 29-33-44N, longitude: 091-31-32W, altitude: 0 m

Observation

Le bulletin a été fait il y a 1 heure et 25 minutes, à 14:59 UTC
Vent 4 kt de est/sud-est
Température 29°C
Humidité 74%
Pression 1013 hPa

METAR: KP92 161459Z AUTO 12004KT 29/24 A2990 RMK AO1 SLP124 T02940244 50003

Heure: 11:24 (16:24 UTC)


TAF: absent

Observations et prévisions météorologiques de plus de 4000 aéroports (messages METAR et TAF).

Les stations disponibles sont représentées par des disques jaunes et rouges sur la carte.

Passer la souris dessus pour voir le nom de la station.

Cliquer dessus pour voir les observations et prévisions météorologiques.

Pour changer de carte: cliquez sur les boutons verts avec une croix noire pour zoomer, sur le bouton vert avec un tiret pour effectuer un zoom arrière, ou sur les flèches vertes pour les cartes adjacentes.


METAR-TAF: